Terminal Aerodrome Forecast
Issued by NWS Mt. Holly, NJ

Current Version | Previous Version | Text Only | Print | Product List | Glossary On
Versions: 1 2 3 4 5 6 7 8 9 10 11 12 13 14 15
000
FTUS41 KPHI 270520
TAFACY
TAF
KACY 270520Z 2706/2806 VRB03KT P6SM FEW090
     FM271000 20006KT P6SM SCT070
     FM271500 25012KT P6SM SCT120
     FM280000 26006KT P6SM BKN060
     FM280100 26003KT P6SM SCT070=

USA.gov is the U.S. government's official web portal to all federal, state and local government web resources and services.